Time;durP1;ratioP1;P1;durP2;ratioP2;P2;SDS_P1;SDS_P2;PMS_P1;PMS_P2;Temp;Humidity;BMP_temperature;BMP_pressure;BME280_temperature;BME280_humidity;BME280_pressure;Samples;Min_cycle;Max_cycle;Signal;HPM_P1;HPM_P2
2022/06/18 00:02:15;;;;;;;6.38;5.32;;;;;;;25.23;49.72;95240.31;4999540;28;20013;-52
2022/06/18 00:04:41;;;;;;;8.35;6.07;;;;;;;25.20;50.05;95239.38;5001315;28;20076;-52
2022/06/18 00:07:07;;;;;;;7.32;6.05;;;;;;;25.23;50.06;95234.84;4998522;28;20497;-53
2022/06/18 00:09:43;;;;;;;6.20;5.60;;;;;;;25.20;49.50;95242.09;4978079;28;20033;-51
2022/06/18 00:15:22;;;;;;;6.97;5.85;;;;;;;25.18;50.04;95239.13;4963062;28;20048;-52
2022/06/18 00:17:47;;;;;;;7.05;6.00;;;;;;;25.16;49.88;95230.72;4998427;28;20022;-52
2022/06/18 00:20:13;;;;;;;6.40;5.65;;;;;;;25.19;50.07;95239.88;4999253;28;20570;-53
2022/06/18 00:22:39;;;;;;;7.00;5.40;;;;;;;25.17;49.85;95237.66;4997347;28;20488;-51
2022/06/18 00:25:36;;;;;;;7.13;5.90;;;;;;;25.20;49.75;95225.72;4983468;28;20088;-51
2022/06/18 00:28:02;;;;;;;6.22;5.55;;;;;;;25.22;49.85;95223.19;4994466;28;20045;-52
2022/06/18 00:30:29;;;;;;;6.28;5.32;;;;;;;25.21;49.98;95216.22;5002810;28;20113;-52
2022/06/18 00:32:54;;;;;;;7.15;6.05;;;;;;;25.19;49.76;95213.28;5000473;28;20543;-52
2022/06/18 00:35:20;;;;;;;6.80;5.90;;;;;;;25.17;49.80;95215.81;5003130;28;20041;-52
2022/06/18 00:37:45;;;;;;;6.53;5.85;;;;;;;25.19;49.97;95224.22;5005714;28;20129;-53
2022/06/18 00:40:19;;;;;;;5.82;5.20;;;;;;;25.16;49.83;95219.78;5002045;28;20030;-53
2022/06/18 00:42:44;;;;;;;6.82;5.88;;;;;;;25.15;50.13;95218.28;4987895;28;20761;-53
2022/06/18 00:45:15;;;;;;;6.60;5.88;;;;;;;25.15;50.06;95218.28;5004867;28;20037;-54
2022/06/18 00:48:23;;;;;;;6.55;5.90;;;;;;;25.16;50.04;95214.31;4965250;28;20424;-51
2022/06/18 00:51:12;;;;;;;8.45;6.28;;;;;;;25.12;50.31;95219.31;4978612;28;20033;-53
2022/06/18 00:53:45;;;;;;;8.03;6.40;;;;;;;25.13;49.96;95214.63;4978736;28;20072;-53
2022/06/18 00:56:21;;;;;;;7.43;5.47;;;;;;;25.09;50.26;95214.88;4984857;28;20028;-53
2022/06/18 00:58:53;;;;;;;7.25;5.97;;;;;;;25.12;49.61;95219.31;5001480;28;20018;-52
2022/06/18 01:01:22;;;;;;;7.13;5.50;;;;;;;25.09;49.77;95219.63;4966581;28;20256;-52
2022/06/18 01:03:48;;;;;;;6.63;5.90;;;;;;;25.10;49.86;95221.84;5003503;28;20029;-56
2022/06/18 01:06:19;;;;;;;7.00;5.68;;;;;;;25.07;50.30;95220.13;5003410;28;20030;-55
2022/06/18 01:08:45;;;;;;;6.53;5.88;;;;;;;25.07;50.04;95217.41;4986389;28;20018;-53
2022/06/18 01:11:24;;;;;;;8.27;5.63;;;;;;;25.08;49.89;95210.69;4985217;28;20029;-53
2022/06/18 01:13:50;;;;;;;6.68;5.70;;;;;;;25.07;49.77;95217.41;4984940;28;20048;-53
2022/06/18 01:16:21;;;;;;;6.40;5.55;;;;;;;25.08;49.96;95207.97;4986560;28;20451;-53
2022/06/18 01:18:47;;;;;;;6.65;5.95;;;;;;;25.03;49.71;95214.22;4985107;28;20033;-55
2022/06/18 01:21:42;;;;;;;6.40;5.80;;;;;;;25.05;49.78;95225.38;4993021;28;20033;-52
2022/06/18 01:24:16;;;;;;;8.38;5.80;;;;;;;25.05;49.86;95217.19;4999992;28;20041;-52
2022/06/18 01:26:43;;;;;;;7.97;6.00;;;;;;;25.03;49.67;95214.22;5001499;28;20122;-53
2022/06/18 01:29:08;;;;;;;6.55;5.82;;;;;;;25.04;49.44;95212.97;4973654;28;20099;-54
2022/06/18 01:31:34;;;;;;;7.43;5.38;;;;;;;25.03;49.74;95208.03;5005820;28;20083;-51
2022/06/18 01:33:59;;;;;;;6.15;5.55;;;;;;;25.01;49.78;95214.00;5003854;28;20018;-52
2022/06/18 01:36:26;;;;;;;6.50;5.80;;;;;;;24.96;49.49;95206.59;5003506;28;20310;-51
2022/06/18 01:38:51;;;;;;;6.10;5.50;;;;;;;24.98;49.47;95214.28;4985676;28;20133;-53
2022/06/18 01:44:33;;;;;;;6.95;5.40;;;;;;;25.01;49.58;95214.00;4973929;28;20050;-53
2022/06/18 01:47:13;;;;;;;6.13;5.40;;;;;;;24.99;49.62;95204.84;4970939;28;20029;-52
2022/06/18 01:49:41;;;;;;;7.43;5.57;;;;;;;24.99;49.23;95205.59;4985328;28;20040;-53
2022/06/18 01:52:08;;;;;;;7.40;5.65;;;;;;;25.00;49.74;95207.06;4984019;28;20350;-53
2022/06/18 01:54:39;;;;;;;7.38;5.80;;;;;;;24.98;49.75;95212.28;4985319;28;20188;-52
2022/06/18 01:57:18;;;;;;;6.68;5.05;;;;;;;25.00;49.33;95217.97;4982744;28;20276;-51
2022/06/18 01:59:49;;;;;;;7.63;5.55;;;;;;;24.94;49.46;95225.47;5001749;28;20030;-53
2022/06/18 02:02:15;;;;;;;6.63;5.95;;;;;;;24.95;49.27;95205.09;4972011;28;20034;-54
2022/06/18 02:04:41;;;;;;;8.32;6.20;;;;;;;24.97;49.36;95210.78;4987826;28;20141;-54
2022/06/18 02:07:06;;;;;;;8.20;5.93;;;;;;;24.96;49.32;95220.25;4980096;28;20038;-52
2022/06/18 02:09:38;;;;;;;7.28;5.70;;;;;;;24.95;49.56;95210.56;5002770;28;20042;-53
2022/06/18 02:12:10;;;;;;;6.03;5.20;;;;;;;24.97;49.19;95213.50;4971712;28;20033;-51
2022/06/18 02:14:36;;;;;;;7.63;5.18;;;;;;;24.98;49.30;95204.06;4985739;28;20030;-52
2022/06/18 02:17:03;;;;;;;5.82;5.20;;;;;;;24.96;49.35;95195.66;4967000;28;20029;-53
2022/06/18 02:19:28;;;;;;;7.78;5.43;;;;;;;24.94;49.23;95202.88;4975028;28;20034;-53
2022/06/18 02:21:55;;;;;;;7.40;5.65;;;;;;;24.95;49.09;95204.38;4984545;28;20033;-53
2022/06/18 02:24:20;;;;;;;5.50;4.95;;;;;;;24.94;49.13;95209.06;4983503;28;20087;-54
2022/06/18 02:26:46;;;;;;;6.85;5.70;;;;;;;24.93;49.00;95212.31;4983433;28;20480;-52
2022/06/18 02:29:21;;;;;;;5.95;5.35;;;;;;;24.91;49.27;95199.19;4988528;28;20126;-55
2022/06/18 02:31:46;;;;;;;7.93;5.40;;;;;;;24.90;49.36;95208.66;4984742;28;20026;-51
2022/06/18 02:34:15;;;;;;;6.60;5.38;;;;;;;24.91;49.38;95204.63;5002654;28;20037;-53
2022/06/18 02:36:43;;;;;;;6.13;4.97;;;;;;;24.89;49.32;95207.16;5004111;28;20033;-53
2022/06/18 02:39:40;;;;;;;6.93;5.65;;;;;;;24.88;49.28;95210.41;5002195;28;20044;-52
2022/06/18 02:42:06;;;;;;;6.93;5.07;;;;;;;24.87;49.19;95214.38;5000728;28;20036;-54
2022/06/18 02:44:31;;;;;;;6.50;5.45;;;;;;;24.85;49.26;95209.44;5001171;28;20121;-54
2022/06/18 02:46:59;;;;;;;7.05;5.20;;;;;;;24.83;49.25;95209.22;5000118;28;21344;-51
2022/06/18 02:49:25;;;;;;;7.32;5.53;;;;;;;24.85;48.96;95203.22;4982272;28;20026;-52
2022/06/18 02:51:50;;;;;;;6.53;5.50;;;;;;;24.87;49.07;95203.44;5002510;28;20018;-52
2022/06/18 02:54:18;;;;;;;6.93;5.07;;;;;;;24.84;49.40;95205.25;4997919;28;20026;-52
2022/06/18 02:56:43;;;;;;;6.15;5.53;;;;;;;24.84;49.31;95194.31;5000581;28;20076;-55
2022/06/18 02:59:09;;;;;;;6.72;5.60;;;;;;;24.82;48.82;95202.25;4984516;28;20026;-53
2022/06/18 03:01:35;;;;;;;7.00;5.38;;;;;;;24.82;49.04;95200.81;4995928;28;20436;-53
2022/06/18 03:04:00;;;;;;;6.75;5.47;;;;;;;24.83;48.95;95198.28;4985148;28;20030;-52
2022/06/18 03:06:27;;;;;;;6.75;5.00;;;;;;;24.79;48.97;95196.38;4998677;28;20045;-53
2022/06/18 03:08:53;;;;;;;6.80;5.13;;;;;;;24.82;49.04;95202.25;4986605;28;20145;-53
2022/06/18 03:14:04;;;;;;;7.10;5.15;;;;;;;24.82;48.88;95207.72;5001583;28;20155;-53
2022/06/18 03:16:30;;;;;;;6.85;5.50;;;;;;;24.82;49.01;95200.81;4999591;28;20457;-53
2022/06/18 03:18:56;;;;;;;7.53;5.35;;;;;;;24.83;48.94;95203.75;4999958;28;20832;-53
2022/06/18 03:21:37;;;;;;;8.52;5.35;;;;;;;24.82;48.81;95198.06;5012594;28;20014;-52
2022/06/18 03:24:03;;;;;;;6.82;4.88;;;;;;;24.83;48.91;95197.56;4998670;28;20026;-52
2022/06/18 03:26:29;;;;;;;6.43;5.32;;;;;;;24.83;49.08;95197.56;4998693;28;20036;-52
2022/06/18 03:28:54;;;;;;;7.20;5.50;;;;;;;24.86;48.53;95205.44;4999524;28;20025;-53
2022/06/18 03:31:20;;;;;;;6.47;5.35;;;;;;;24.85;48.67;95216.91;4999084;28;20715;-53
2022/06/18 03:33:46;;;;;;;7.43;5.10;;;;;;;24.83;48.82;95209.22;4997349;28;20119;-51
2022/06/18 03:36:12;;;;;;;5.78;5.15;;;;;;;24.84;48.56;95210.69;4999270;28;20041;-53
2022/06/18 03:38:37;;;;;;;7.57;4.88;;;;;;;24.82;48.81;95221.38;4987248;28;20022;-52
2022/06/18 03:41:03;;;;;;;5.47;4.78;;;;;;;24.86;48.68;95219.13;5003907;28;20026;-56
2022/06/18 03:43:28;;;;;;;7.38;5.22;;;;;;;24.84;48.41;95224.34;4996610;28;20046;-52
2022/06/18 03:46:00;;;;;;;6.68;5.10;;;;;;;24.83;48.58;95225.59;5003808;28;20029;-53
2022/06/18 03:48:36;;;;;;;6.53;5.18;;;;;;;24.84;48.59;95227.09;4982733;28;20026;-56
2022/06/18 03:51:01;;;;;;;7.03;5.30;;;;;;;24.81;48.69;95232.81;4980937;28;20029;-53
2022/06/18 03:53:27;;;;;;;6.75;4.90;;;;;;;24.81;48.70;95232.09;4995467;28;20762;-55
2022/06/18 03:55:52;;;;;;;7.00;5.13;;;;;;;24.83;48.42;95231.06;4997119;28;20034;-54
2022/06/18 03:58:18;;;;;;;6.15;5.00;;;;;;;24.82;48.70;95224.13;5001583;28;20544;-52
2022/06/18 04:00:43;;;;;;;7.05;5.43;;;;;;;24.82;48.54;95222.66;4999692;28;20069;-54
2022/06/18 04:03:09;;;;;;;6.75;5.07;;;;;;;24.83;48.40;95231.06;5006995;28;20065;-56
2022/06/18 04:05:36;;;;;;;6.03;5.13;;;;;;;24.83;48.50;95236.53;5002304;28;20509;-54
2022/06/18 04:08:02;;;;;;;6.05;4.97;;;;;;;24.83;48.59;95227.59;4972745;28;20061;-53
2022/06/18 04:10:27;;;;;;;7.20;5.00;;;;;;;24.84;48.56;95227.09;5005141;28;20143;-52
2022/06/18 04:12:53;;;;;;;7.88;5.07;;;;;;;24.80;48.69;95227.88;5006219;28;20054;-53
2022/06/18 04:15:19;;;;;;;7.05;5.20;;;;;;;24.82;48.58;95233.59;5005969;28;20142;-53
2022/06/18 04:17:45;;;;;;;6.28;5.38;;;;;;;24.81;48.28;95232.09;5003395;28;20029;-53
2022/06/18 04:20:33;;;;;;;6.63;4.97;;;;;;;24.80;48.16;95231.38;5005750;28;20041;-55
2022/06/18 04:22:59;;;;;;;6.65;4.97;;;;;;;24.83;48.37;95235.81;5003455;28;20018;-53
2022/06/18 04:25:24;;;;;;;8.18;5.35;;;;;;;24.84;48.28;95232.56;5005199;28;20517;-52
2022/06/18 04:27:50;;;;;;;7.32;5.18;;;;;;;24.84;48.75;95240.75;5009198;28;20031;-51
2022/06/18 04:30:16;;;;;;;5.28;4.70;;;;;;;24.83;48.54;95236.53;5005624;28;20024;-53
2022/06/18 04:32:42;;;;;;;6.50;5.00;;;;;;;24.87;48.43;95247.91;4987825;28;20501;-53
2022/06/18 04:35:10;;;;;;;8.48;5.40;;;;;;;24.88;48.12;95238.44;5007873;28;20034;-52
2022/06/18 04:37:36;;;;;;;8.70;5.22;;;;;;;24.89;48.21;95241.94;5006070;28;20037;-54
2022/06/18 04:40:02;;;;;;;6.65;4.88;;;;;;;24.89;48.42;95229.00;5008491;28;20413;-52
2022/06/18 04:42:27;;;;;;;6.47;5.07;;;;;;;24.86;48.43;95242.97;5005892;28;20477;-54
2022/06/18 04:44:53;;;;;;;6.57;5.07;;;;;;;24.87;48.41;95241.69;5006311;28;20175;-53
2022/06/18 04:47:18;;;;;;;8.32;4.97;;;;;;;24.89;48.04;95234.47;5004300;28;20037;-52
2022/06/18 04:49:44;;;;;;;6.55;4.57;;;;;;;24.91;48.03;95242.16;5005733;28;20443;-56
2022/06/18 04:52:09;;;;;;;5.35;4.38;;;;;;;24.90;48.35;95246.91;4987810;28;20053;-52
2022/06/18 04:54:35;;;;;;;7.75;4.40;;;;;;;24.93;48.16;95240.41;5003184;28;20026;-51
2022/06/18 04:57:00;;;;;;;6.10;4.63;;;;;;;24.92;48.10;95233.44;5004848;28;20026;-52
2022/06/18 04:59:26;;;;;;;6.13;4.82;;;;;;;24.87;48.17;95247.16;5006405;28;20362;-54
2022/06/18 05:02:03;;;;;;;4.75;4.18;;;;;;;24.92;48.33;95233.44;5004456;28;20077;-52
2022/06/18 05:04:28;;;;;;;6.03;4.45;;;;;;;24.91;48.12;95237.44;5012820;28;20034;-51
2022/06/18 05:06:54;;;;;;;5.43;4.10;;;;;;;24.93;47.98;95229.47;5005436;28;20092;-52
2022/06/18 05:09:19;;;;;;;8.73;5.28;;;;;;;24.93;48.08;95240.41;5003657;28;20030;-53
2022/06/18 05:11:45;;;;;;;6.20;4.53;;;;;;;24.96;47.79;95244.84;5006207;28;20025;-52
2022/06/18 05:14:11;;;;;;;7.13;4.32;;;;;;;24.93;48.13;95234.94;5005251;28;20136;-53
2022/06/18 05:16:36;;;;;;;6.68;4.60;;;;;;;24.94;47.92;95241.88;5004394;28;20108;-54
2022/06/18 05:19:02;;;;;;;7.18;4.10;;;;;;;24.95;47.94;95243.34;5002501;28;20037;-53
2022/06/18 05:21:27;;;;;;;6.50;4.30;;;;;;;24.97;47.74;95246.31;5017163;28;20032;-54
2022/06/18 05:23:53;;;;;;;5.65;4.40;;;;;;;24.99;47.90;95249.31;5004817;28;20086;-55
2022/06/18 05:26:19;;;;;;;4.97;4.22;;;;;;;24.99;47.72;95254.78;5004678;28;20037;-53
2022/06/18 05:28:44;;;;;;;6.57;4.13;;;;;;;25.02;47.81;95253.75;5003568;28;20030;-54
2022/06/18 05:31:10;;;;;;;6.03;4.05;;;;;;;25.06;47.72;95254.19;5005219;28;20018;-53
2022/06/18 05:33:35;;;;;;;6.45;4.13;;;;;;;25.00;47.94;95250.78;4998902;28;20037;-53
2022/06/18 05:36:01;;;;;;;5.43;4.32;;;;;;;25.01;48.14;95252.25;5000403;28;20629;-52
2022/06/18 05:38:26;;;;;;;6.55;4.63;;;;;;;25.05;48.10;95252.72;5007527;28;20527;-53
2022/06/18 05:40:52;;;;;;;6.05;4.20;;;;;;;25.05;48.02;95252.72;5004803;28;20037;-53
2022/06/18 05:43:17;;;;;;;6.28;4.10;;;;;;;25.05;48.17;95250.00;4984758;28;20054;-53
2022/06/18 05:45:43;;;;;;;6.05;4.35;;;;;;;25.06;48.30;95247.97;5003307;28;20493;-53
2022/06/18 05:48:09;;;;;;;4.97;4.30;;;;;;;25.07;48.05;95255.66;5004264;28;20080;-53
2022/06/18 05:50:34;;;;;;;6.90;4.53;;;;;;;25.07;48.13;95263.13;5004710;28;20046;-54
2022/06/18 05:53:00;;;;;;;6.38;4.25;;;;;;;25.07;48.35;95260.41;5002088;28;20029;-51
2022/06/18 05:55:25;;;;;;;6.30;4.78;;;;;;;25.10;48.33;95260.09;5002673;28;20449;-52
2022/06/18 05:57:52;;;;;;;5.78;4.38;;;;;;;25.09;48.22;95258.63;5002306;28;20749;-52
2022/06/18 06:00:19;;;;;;;4.72;3.90;;;;;;;25.11;48.17;95261.59;5002939;28;20140;-54
2022/06/18 06:02:45;;;;;;;5.47;4.00;;;;;;;25.08;48.46;95259.13;5001194;28;20092;-54
2022/06/18 06:05:10;;;;;;;5.45;4.05;;;;;;;25.09;48.24;95264.09;5002276;28;20029;-55
2022/06/18 06:07:35;;;;;;;7.65;4.57;;;;;;;25.11;48.14;95267.06;5002067;28;20038;-52
2022/06/18 06:12:45;;;;;;;5.95;4.13;;;;;;;25.12;48.32;95262.31;5001992;28;20041;-53
2022/06/18 06:15:10;;;;;;;6.00;4.25;;;;;;;25.14;48.39;95266.03;5003666;28;20034;-54
2022/06/18 06:17:36;;;;;;;5.50;4.15;;;;;;;25.12;48.32;95260.31;4982204;28;20022;-51
2022/06/18 06:20:07;;;;;;;5.57;4.38;;;;;;;25.15;47.99;95267.50;5005134;28;20030;-51
2022/06/18 06:22:34;;;;;;;5.28;4.40;;;;;;;25.17;47.91;95262.28;4987248;28;20548;-52
2022/06/18 06:24:59;;;;;;;7.10;4.68;;;;;;;25.16;48.05;95258.03;5005131;28;20026;-52
2022/06/18 06:27:25;;;;;;;5.97;4.30;;;;;;;25.19;48.16;95257.03;5001884;28;20582;-56
2022/06/18 06:29:50;;;;;;;6.38;4.18;;;;;;;25.19;48.05;95267.94;4998671;28;20417;-52
2022/06/18 06:32:16;;;;;;;5.80;4.60;;;;;;;25.20;47.47;95253.03;5000918;28;20045;-52
2022/06/18 06:34:42;;;;;;;6.28;3.95;;;;;;;25.20;47.77;95252.28;4998795;28;20473;-52
2022/06/18 06:37:07;;;;;;;6.85;4.00;;;;;;;25.20;47.71;95258.50;5002232;28;20107;-53
2022/06/18 06:39:32;;;;;;;7.30;4.32;;;;;;;25.23;47.86;95252.00;5001336;28;20487;-53
2022/06/18 06:41:58;;;;;;;6.22;4.28;;;;;;;25.26;47.99;95267.38;4999834;28;20477;-52
2022/06/18 06:44:23;;;;;;;6.68;4.38;;;;;;;25.24;47.54;95258.94;5001388;28;20563;-54
2022/06/18 06:46:49;;;;;;;5.70;4.22;;;;;;;25.27;47.84;95262.63;4985713;28;20461;-51
2022/06/18 06:49:14;;;;;;;9.32;4.38;;;;;;;25.28;47.61;95264.84;5007798;28;20026;-51
2022/06/18 06:51:40;;;;;;;6.03;4.72;;;;;;;25.29;47.71;95266.34;5001656;28;20820;-51
2022/06/18 06:54:07;;;;;;;5.45;4.10;;;;;;;25.31;47.28;95263.09;5000801;28;20057;-52
2022/06/18 06:59:16;;;;;;;6.45;4.28;;;;;;;25.32;47.57;95266.06;5003822;28;20523;-52
2022/06/18 07:01:42;;;;;;;5.35;3.72;;;;;;;25.31;47.60;95253.63;5000794;28;20097;-52
2022/06/18 07:04:10;;;;;;;6.38;4.00;;;;;;;25.35;47.20;95258.78;5011285;28;20034;-53
2022/06/18 07:06:35;;;;;;;5.60;4.15;;;;;;;25.36;47.33;95257.53;4984293;28;20034;-51
2022/06/18 07:09:03;;;;;;;6.70;4.00;;;;;;;25.37;47.16;95261.75;5002666;28;20022;-52
2022/06/18 07:11:28;;;;;;;5.93;3.85;;;;;;;25.38;46.92;95257.75;5000979;28;20034;-54
2022/06/18 07:13:54;;;;;;;4.68;3.38;;;;;;;25.39;46.98;95253.78;4999017;28;20032;-52
2022/06/18 07:16:19;;;;;;;5.22;3.65;;;;;;;25.40;46.99;95255.28;4997857;28;20403;-53
2022/06/18 07:18:45;;;;;;;6.03;3.88;;;;;;;25.41;47.04;95256.72;4999951;28;20500;-53
2022/06/18 07:21:14;;;;;;;5.13;4.10;;;;;;;25.42;46.61;95258.22;5002129;28;20698;-52
2022/06/18 07:23:39;;;;;;;5.03;3.95;;;;;;;25.44;46.76;95255.69;4999256;28;20798;-54
2022/06/18 07:26:05;;;;;;;6.47;4.07;;;;;;;25.44;46.81;95258.44;4984147;28;20125;-54
2022/06/18 07:28:31;;;;;;;6.00;3.63;;;;;;;25.46;46.66;95253.94;5005577;28;20440;-52
2022/06/18 07:30:56;;;;;;;6.05;3.80;;;;;;;25.49;46.42;95252.16;4999706;28;20038;-54
2022/06/18 07:33:23;;;;;;;4.32;3.55;;;;;;;25.50;46.28;95259.09;5000295;28;20022;-52
2022/06/18 07:35:49;;;;;;;4.65;3.45;;;;;;;25.51;46.61;95260.59;5001618;28;20033;-51
2022/06/18 07:38:15;;;;;;;5.65;3.67;;;;;;;25.51;46.44;95260.59;4982021;28;20471;-52
2022/06/18 07:40:50;;;;;;;5.50;3.75;;;;;;;25.53;46.42;95256.09;4998418;28;20037;-53
2022/06/18 07:43:39;;;;;;;4.80;3.80;;;;;;;25.55;46.23;95250.09;5001012;28;20037;-52
2022/06/18 07:46:05;;;;;;;4.87;3.57;;;;;;;25.58;46.07;95260.00;4981445;28;20637;-52
2022/06/18 07:48:31;;;;;;;6.88;4.18;;;;;;;25.58;45.91;95255.25;5002032;28;20018;-51
2022/06/18 07:50:56;;;;;;;5.90;3.95;;;;;;;25.59;45.42;95250.53;4999472;28;20109;-51
2022/06/18 07:53:23;;;;;;;6.57;3.72;;;;;;;25.62;45.92;95246.75;5001504;28;20026;-52
2022/06/18 07:55:48;;;;;;;5.13;4.20;;;;;;;25.63;46.21;95250.97;4999660;28;20080;-54
2022/06/18 07:58:14;;;;;;;5.35;3.70;;;;;;;25.64;45.71;95252.47;4998642;28;20512;-52
2022/06/18 08:00:40;;;;;;;7.97;4.55;;;;;;;25.66;45.40;95247.22;5001247;28;20108;-51
2022/06/18 08:03:09;;;;;;;6.35;3.90;;;;;;;25.66;45.17;95252.69;5000299;28;20485;-52
2022/06/18 08:05:34;;;;;;;6.30;4.28;;;;;;;25.69;45.27;95248.94;4999769;28;20025;-51
2022/06/18 08:08:00;;;;;;;5.90;4.07;;;;;;;25.68;45.62;95241.97;5001774;28;20033;-51
2022/06/18 08:10:25;;;;;;;5.22;3.70;;;;;;;25.72;45.09;95250.63;5002981;28;20083;-52
2022/06/18 08:12:51;;;;;;;5.70;4.30;;;;;;;25.73;45.17;95244.63;4984234;28;20026;-50
2022/06/18 08:15:18;;;;;;;5.60;4.10;;;;;;;25.78;45.26;95245.81;4984222;28;20030;-53
2022/06/18 08:17:43;;;;;;;5.00;3.85;;;;;;;25.78;45.08;95245.81;4998370;28;20030;-52
2022/06/18 08:20:09;;;;;;;5.50;4.00;;;;;;;25.79;45.29;95247.31;5008588;28;20021;-53
2022/06/18 08:22:35;;;;;;;5.90;3.85;;;;;;;25.81;44.92;95251.75;5002210;28;20029;-53
2022/06/18 08:25:00;;;;;;;7.93;4.10;;;;;;;25.82;45.27;95252.47;4984253;28;20026;-53
2022/06/18 08:27:26;;;;;;;4.68;3.70;;;;;;;25.83;45.15;95246.47;4998132;28;20049;-53
2022/06/18 08:29:51;;;;;;;6.32;4.07;;;;;;;25.83;44.54;95254.69;4979567;28;20088;-53
2022/06/18 08:32:17;;;;;;;4.95;3.50;;;;;;;25.84;44.89;95250.69;5000255;28;20082;-54
2022/06/18 08:34:42;;;;;;;4.80;3.83;;;;;;;25.86;44.75;95247.44;4984403;28;20484;-52
2022/06/18 08:37:08;;;;;;;4.65;3.80;;;;;;;25.88;44.94;95240.19;4998620;28;20030;-52
2022/06/18 08:39:33;;;;;;;5.22;4.13;;;;;;;25.90;45.32;95254.09;4981779;28;20036;-52
2022/06/18 08:42:30;;;;;;;6.47;4.32;;;;;;;25.96;44.93;95246.53;4976673;28;20036;-51
2022/06/18 08:45:14;;;;;;;5.07;3.55;;;;;;;25.99;44.85;95242.00;5002022;28;20041;-51
2022/06/18 08:47:49;;;;;;;4.78;4.00;;;;;;;26.02;44.86;95244.47;4982070;28;20408;-51
2022/06/18 08:50:30;;;;;;;4.72;3.78;;;;;;;26.03;44.72;95229.50;4999009;28;20079;-52
2022/06/18 08:53:33;;;;;;;6.32;4.10;;;;;;;26.04;44.91;95235.72;4982677;28;20046;-52
2022/06/18 08:56:20;;;;;;;5.90;3.78;;;;;;;26.05;45.27;95227.00;5004729;28;20059;-51
2022/06/18 08:59:06;;;;;;;5.32;4.07;;;;;;;26.06;44.46;95220.25;4999357;28;20022;-53
2022/06/18 09:01:48;;;;;;;5.97;3.95;;;;;;;26.09;44.71;95216.47;4969056;28;20034;-51
2022/06/18 09:04:28;;;;;;;5.10;3.67;;;;;;;26.09;44.60;95221.94;4986696;28;20088;-54
2022/06/18 09:07:02;;;;;;;5.15;4.05;;;;;;;26.15;44.84;95214.38;4986826;28;20109;-54
2022/06/18 09:09:32;;;;;;;5.10;4.20;;;;;;;26.18;44.87;95223.56;4987497;28;20032;-51
2022/06/18 09:12:02;;;;;;;5.25;4.20;;;;;;;26.19;45.02;95209.34;4986025;28;20049;-53
2022/06/18 09:14:28;;;;;;;5.10;3.72;;;;;;;26.23;45.08;95217.25;4986178;28;20033;-52
2022/06/18 09:16:59;;;;;;;6.50;4.05;;;;;;;26.23;45.06;95214.50;5000197;28;20033;-51
2022/06/18 09:19:26;;;;;;;5.85;4.45;;;;;;;26.23;44.82;95204.28;4986000;28;20029;-52
2022/06/18 09:21:55;;;;;;;5.10;4.38;;;;;;;26.27;44.94;95204.72;4988192;28;20424;-51
2022/06/18 09:24:40;;;;;;;5.45;4.10;;;;;;;26.28;44.95;95211.72;5003799;28;20115;-50
2022/06/18 09:27:24;;;;;;;5.50;4.15;;;;;;;26.30;44.78;95214.66;5001456;28;20033;-53
2022/06/18 09:30:02;;;;;;;4.93;3.92;;;;;;;26.28;44.57;95211.72;5001196;28;20034;-52
2022/06/18 09:32:48;;;;;;;5.25;3.92;;;;;;;26.31;44.12;95216.13;5003011;28;20037;-52
2022/06/18 09:35:30;;;;;;;5.65;3.70;;;;;;;26.30;44.00;95209.91;4986622;28;20490;-52
2022/06/18 09:38:00;;;;;;;4.10;3.70;;;;;;;26.30;44.21;95220.13;4984817;28;20997;-51
2022/06/18 09:40:48;;;;;;;5.88;4.22;;;;;;;26.32;44.00;95223.06;5001824;28;20034;-51
2022/06/18 09:43:22;;;;;;;5.47;4.30;;;;;;;26.32;43.88;95223.06;4998128;28;20131;-54
2022/06/18 09:45:50;;;;;;;5.10;4.43;;;;;;;26.31;44.34;95227.09;5002347;28;20045;-52
2022/06/18 09:48:16;;;;;;;5.07;3.88;;;;;;;26.30;44.33;95226.34;4967367;28;20026;-51
2022/06/18 09:51:04;;;;;;;5.65;4.05;;;;;;;26.34;44.03;95228.78;5011686;28;20041;-51
2022/06/18 09:53:34;;;;;;;5.85;4.28;;;;;;;26.33;43.87;95230.75;4985249;28;20524;-51
2022/06/18 09:56:11;;;;;;;5.07;4.10;;;;;;;26.34;43.65;95231.53;4967882;28;20026;-53
2022/06/18 09:58:40;;;;;;;6.47;4.65;;;;;;;26.34;43.57;95221.28;5016024;28;20033;-52
2022/06/18 10:01:05;;;;;;;5.57;4.70;;;;;;;26.36;43.49;95224.25;5003558;28;20044;-52
2022/06/18 10:09:03;;;;;;;5.57;4.28;;;;;;;26.43;44.87;95209.94;5002319;28;20118;-53
2022/06/18 10:11:29;;;;;;;5.85;4.57;;;;;;;26.47;44.70;95209.63;5002286;28;20113;-53
2022/06/18 10:14:10;;;;;;;7.43;4.60;;;;;;;26.48;44.80;95208.38;4984063;28;20029;-53
2022/06/18 10:16:57;;;;;;;5.82;4.53;;;;;;;26.50;44.68;95208.56;4967133;28;20509;-53
2022/06/18 10:19:30;;;;;;;4.95;4.30;;;;;;;26.52;44.88;95204.06;5003460;28;20120;-53
2022/06/18 10:21:58;;;;;;;5.70;4.55;;;;;;;26.54;44.89;95211.75;4982469;28;20030;-52
2022/06/18 10:24:23;;;;;;;6.63;4.68;;;;;;;26.55;45.13;95202.28;5004518;28;20060;-52
2022/06/18 10:27:03;;;;;;;5.00;4.10;;;;;;;26.59;44.98;95191.72;5000771;28;20440;-51
2022/06/18 10:29:50;;;;;;;7.78;5.15;;;;;;;26.61;44.99;95194.69;5011181;28;20180;-51
2022/06/18 10:32:30;;;;;;;6.22;4.18;;;;;;;26.63;45.02;95192.16;4986040;28;20033;-51
2022/06/18 10:35:09;;;;;;;;;;;;;;;26.61;45.19;95205.66;4984875;28;20025;-52
2022/06/18 10:37:57;;;;;;;6.40;4.57;;;;;;;26.63;45.11;95225.03;4980260;28;19999;-52
2022/06/18 10:40:55;;;;;;;4.80;4.25;;;;;;;26.59;45.45;95216.38;5000951;28;20034;-52
2022/06/18 10:43:45;;;;;;;6.88;4.55;;;;;;;26.55;46.69;95213.22;5002101;28;20050;-51
2022/06/18 10:46:13;;;;;;;7.05;4.10;;;;;;;26.48;47.01;95213.84;5003307;28;20025;-51
2022/06/18 10:48:52;;;;;;;7.40;4.40;;;;;;;26.47;47.19;95223.31;4966836;28;20044;-52
2022/06/18 10:51:20;;;;;;;6.65;4.50;;;;;;;26.43;47.23;95215.41;4969450;28;20069;-52
2022/06/18 10:53:54;;;;;;;6.72;4.65;;;;;;;26.43;47.36;95220.16;5002160;28;20030;-52
2022/06/18 10:56:27;;;;;;;5.07;4.30;;;;;;;26.39;47.43;95222.47;4997090;28;20030;-53
2022/06/18 10:59:02;;;;;;;6.35;4.60;;;;;;;26.34;47.60;95220.56;5001786;28;20033;-51
2022/06/18 11:01:34;;;;;;;7.38;4.60;;;;;;;26.31;47.47;95216.13;4982005;28;20041;-53
2022/06/18 11:04:02;;;;;;;5.78;4.40;;;;;;;26.25;47.95;95229.16;4985964;28;20427;-52
2022/06/18 11:06:27;;;;;;;6.45;4.53;;;;;;;26.25;48.41;95239.34;5000990;28;20020;-52
2022/06/18 11:08:56;;;;;;;6.88;4.47;;;;;;;26.23;48.44;95264.50;4981637;28;20026;-51
2022/06/18 11:11:24;;;;;;;8.73;4.93;;;;;;;26.22;48.24;95257.56;4984501;28;20457;-54
2022/06/18 11:13:50;;;;;;;7.65;4.65;;;;;;;26.16;48.81;95276.09;4964192;28;20135;-51
2022/06/18 11:16:26;;;;;;;6.50;4.75;;;;;;;26.15;48.93;95258.19;4997659;28;20018;-50
2022/06/18 11:18:59;;;;;;;7.80;4.75;;;;;;;26.16;48.92;95247.94;4965643;28;20054;-51
2022/06/18 11:21:26;;;;;;;7.15;4.80;;;;;;;26.13;48.73;95255.22;5005534;28;20033;-52
2022/06/18 11:23:57;;;;;;;6.57;4.60;;;;;;;26.11;48.79;95257.72;5004106;28;20408;-52
2022/06/18 11:26:23;;;;;;;6.63;4.82;;;;;;;26.08;48.16;95258.03;5002758;28;20041;-53
2022/06/18 11:28:49;;;;;;;7.07;4.60;;;;;;;26.05;48.59;95243.41;4987822;28;20445;-52
2022/06/18 11:31:44;;;;;;;5.88;4.43;;;;;;;25.99;49.01;95239.28;4999585;28;20022;-54
2022/06/18 11:34:21;;;;;;;7.38;4.57;;;;;;;26.02;48.75;95254.66;4996087;28;20063;-53
2022/06/18 11:36:51;;;;;;;10.55;6.05;;;;;;;25.96;48.77;95262.97;4983595;28;20051;-54
2022/06/18 11:39:37;;;;;;;6.78;4.28;;;;;;;25.94;48.54;95262.72;5001484;28;20022;-53
2022/06/18 11:42:08;;;;;;;6.80;4.45;;;;;;;25.91;48.66;95266.50;4998312;28;20049;-52
2022/06/18 11:44:38;;;;;;;6.63;4.25;;;;;;;25.90;48.76;95256.84;4984093;28;20037;-53
2022/06/18 11:47:07;;;;;;;;;;;;;;;25.81;49.26;95268.16;4982704;28;20033;-51
2022/06/18 11:49:50;;;;;;;6.88;4.45;;;;;;;25.87;49.16;95260.59;4999925;28;19921;-52
2022/06/18 11:52:15;;;;;;;5.78;4.10;;;;;;;25.87;49.30;95266.09;5001132;28;20040;-53
2022/06/18 11:54:52;;;;;;;7.28;4.07;;;;;;;25.93;49.00;95255.78;5001025;28;20567;-50
2022/06/18 11:57:30;;;;;;;8.15;4.13;;;;;;;26.01;48.95;95264.13;4981981;28;20030;-52
2022/06/18 12:00:33;;;;;;;6.93;4.32;;;;;;;26.07;49.13;95246.38;4998963;28;20030;-53
2022/06/18 12:02:59;;;;;;;6.75;4.28;;;;;;;26.11;49.14;95257.00;4982666;28;20034;-52
2022/06/18 12:05:32;;;;;;;6.72;4.22;;;;;;;26.16;48.90;95243.25;4999271;28;20420;-51
2022/06/18 12:07:59;;;;;;;6.10;4.20;;;;;;;26.20;48.28;95243.66;4981850;28;20021;-52